createdAt,value
2022-08-17T00:02:26.557Z,101022.22
2022-08-17T00:04:54.985Z,101024.72
2022-08-17T00:07:22.821Z,101017.06
2022-08-17T00:09:50.517Z,101017.06
2022-08-17T00:12:40.552Z,101012.06
2022-08-17T00:15:10.491Z,101002.28
2022-08-17T00:17:38.590Z,101006.25
2022-08-17T00:20:06.758Z,101007.94
2022-08-17T00:22:36.730Z,101009.91
2022-08-17T00:25:07.319Z,101011.38
2022-08-17T00:27:37.074Z,101020.22
2022-08-17T00:30:06.403Z,101015.88
2022-08-17T00:33:15.409Z,101012.22
2022-08-17T00:35:28.774Z,101003.22
2022-08-17T00:37:56.578Z,100996.94
2022-08-17T00:40:24.583Z,101002.22
2022-08-17T00:42:54.359Z,100998.75
2022-08-17T00:45:23.375Z,100994.75
2022-08-17T00:47:51.036Z,100996.53
2022-08-17T00:50:19.578Z,101009.22
2022-08-17T00:52:52.393Z,101006.56
2022-08-17T00:55:20.907Z,101011.22
2022-08-17T00:57:55.155Z,101009.22
2022-08-17T01:00:26.937Z,101004.53
2022-08-17T01:02:56.771Z,101006.38
2022-08-17T01:05:27.082Z,101006.09
2022-08-17T01:07:57.561Z,101012.22
2022-08-17T01:10:59.359Z,101011.59
2022-08-17T01:13:19.193Z,101013.22
2022-08-17T01:15:50.855Z,101014.06
2022-08-17T01:18:18.687Z,101001.72
2022-08-17T01:20:48.910Z,101014.88
2022-08-17T01:23:20.823Z,101023.03
2022-08-17T01:25:50.892Z,101011.88
2022-08-17T01:28:52.438Z,101012.53
2022-08-17T01:31:08.403Z,101009.88
2022-08-17T01:33:36.195Z,101010.03
2022-08-17T01:36:04.233Z,101009.41
2022-08-17T01:38:33.321Z,101014.38
2022-08-17T01:41:02.402Z,101008.38
2022-08-17T01:43:33.923Z,101007.53
2022-08-17T01:46:03.988Z,101021.19
2022-08-17T01:48:32.735Z,101017.91
2022-08-17T01:51:00.418Z,101020.91
2022-08-17T01:53:30.215Z,101012.91
2022-08-17T01:56:01.177Z,101014.06
2022-08-17T01:58:28.937Z,101012.75
2022-08-17T02:01:00.585Z,101007.75
2022-08-17T02:03:29.644Z,101013.41
2022-08-17T02:05:57.630Z,101018.91
2022-08-17T02:08:39.025Z,101022.72
2022-08-17T02:11:11.418Z,101017.56
2022-08-17T02:13:39.783Z,101006.94
2022-08-17T02:16:07.510Z,101005.28
2022-08-17T02:18:35.186Z,101007.25
2022-08-17T02:21:03.040Z,101009.13
2022-08-17T02:23:32.910Z,101009.44
2022-08-17T02:26:01.163Z,101010.59
2022-08-17T02:28:30.857Z,101012.78
2022-08-17T02:31:05.131Z,101014.09
2022-08-17T02:33:42.054Z,101016.78
2022-08-17T02:36:11.844Z,101020.44
2022-08-17T02:38:40.033Z,101021.78
2022-08-17T02:41:07.959Z,101012.16
2022-08-17T02:43:37.194Z,101021.28
2022-08-17T02:46:04.888Z,101024.78
2022-08-17T02:48:32.694Z,101011.81
2022-08-17T02:51:00.428Z,101015.47
2022-08-17T02:53:35.773Z,101004.84
2022-08-17T02:56:04.292Z,101011.13
2022-08-17T02:58:35.774Z,101016.47
2022-08-17T03:01:05.707Z,101010.31
2022-08-17T03:03:33.641Z,101020.28
2022-08-17T03:06:01.663Z,101018.31
2022-08-17T03:08:29.356Z,101010.66
2022-08-17T03:10:57.130Z,101014.97
2022-08-17T03:13:24.787Z,101013.97
2022-08-17T03:15:52.535Z,101015.66
2022-08-17T03:18:24.447Z,101016.63
2022-08-17T03:20:54.000Z,101027.09
2022-08-17T03:23:24.232Z,101017.31
2022-08-17T03:25:54.180Z,101015.31
2022-08-17T03:28:22.497Z,101019.63
2022-08-17T03:30:51.261Z,101017.97
2022-08-17T03:33:19.330Z,101012.66
2022-08-17T03:35:48.522Z,101007.97
2022-08-17T03:38:17.340Z,101004.16
2022-08-17T03:40:56.941Z,101012.63
2022-08-17T03:43:29.390Z,101014.94
2022-08-17T03:46:28.177Z,101016.25
2022-08-17T03:49:19.556Z,101015.28
2022-08-17T03:52:06.044Z,101015.59
2022-08-17T03:54:51.499Z,101009.13
2022-08-17T03:57:19.460Z,101011.59
2022-08-17T03:59:50.351Z,101013.09
2022-08-17T04:02:19.475Z,101023.41
2022-08-17T04:04:50.797Z,101016.91
2022-08-17T04:07:20.486Z,101011.41
2022-08-17T04:09:48.179Z,101012.91
2022-08-17T04:12:16.145Z,101020.56
2022-08-17T04:14:53.187Z,101018.38
2022-08-17T04:17:21.841Z,101015.38
2022-08-17T04:19:49.508Z,101018.56
2022-08-17T04:22:31.962Z,101025.38
2022-08-17T04:25:05.555Z,101019.53
2022-08-17T04:27:33.317Z,101027.19
2022-08-17T04:30:01.257Z,101023.16
2022-08-17T04:33:05.191Z,101027.97
2022-08-17T04:35:19.077Z,101018.81
2022-08-17T04:37:47.468Z,101024.44
2022-08-17T04:40:36.344Z,101024.09
2022-08-17T04:43:05.299Z,101015.75
2022-08-17T04:45:33.083Z,101014.44
2022-08-17T04:48:01.395Z,101023.06
2022-08-17T04:50:29.120Z,101017.72
2022-08-17T04:52:57.206Z,101025.38
2022-08-17T04:55:26.458Z,101020.53
2022-08-17T04:57:54.160Z,101022.84
2022-08-17T05:00:26.041Z,101043.16
2022-08-17T05:02:54.786Z,101039.81
2022-08-17T05:05:23.799Z,101027.66
2022-08-17T05:07:52.695Z,101035.31
2022-08-17T05:10:21.240Z,101035.50
2022-08-17T05:12:58.042Z,101034.66
2022-08-17T05:15:25.945Z,101039.81
2022-08-17T05:17:54.389Z,101036.47
2022-08-17T05:20:22.315Z,101047.31
2022-08-17T05:22:53.166Z,101046.97
2022-08-17T05:25:24.961Z,101050.13
2022-08-17T05:27:55.315Z,101056.28
2022-08-17T05:30:24.006Z,101059.59
2022-08-17T05:32:55.310Z,101064.59
2022-08-17T05:35:23.265Z,101062.75
2022-08-17T05:37:50.953Z,101074.25
2022-08-17T05:40:20.006Z,101078.94
2022-08-17T05:42:47.720Z,101075.78
2022-08-17T05:45:32.680Z,101076.09
2022-08-17T05:48:05.306Z,101069.91
2022-08-17T05:50:40.118Z,101072.25
2022-08-17T05:53:14.282Z,101080.25
2022-08-17T05:55:46.967Z,101079.25
2022-08-17T05:58:21.352Z,101067.41
2022-08-17T06:00:57.329Z,101065.06
2022-08-17T06:03:40.087Z,101079.72
2022-08-17T06:06:15.362Z,101076.34
2022-08-17T06:08:48.135Z,101079.69
2022-08-17T06:11:22.863Z,101080.63
2022-08-17T06:13:58.986Z,101086.91
2022-08-17T06:16:34.511Z,101083.38
2022-08-17T06:19:04.823Z,101081.38
2022-08-17T06:21:35.344Z,101071.47
2022-08-17T06:24:06.641Z,101070.97
2022-08-17T06:26:38.561Z,101077.03
2022-08-17T06:29:19.086Z,101073.53
2022-08-17T06:31:48.939Z,101065.59
2022-08-17T06:34:16.602Z,101069.94
2022-08-17T06:36:50.713Z,101057.53
2022-08-17T06:39:24.784Z,101059.94
2022-08-17T06:41:58.918Z,101055.75
2022-08-17T06:44:47.609Z,101062.75
2022-08-17T06:47:28.552Z,101059.63
2022-08-17T06:50:02.041Z,101062.03
2022-08-17T06:52:45.520Z,101068.09
2022-08-17T06:55:19.014Z,101069.19
2022-08-17T06:57:48.871Z,101069.91
2022-08-17T07:00:18.526Z,101076.81
2022-08-17T07:02:54.351Z,101083.81
2022-08-17T07:05:23.857Z,101083.94
2022-08-17T07:08:04.665Z,101091.41
2022-08-17T07:10:36.034Z,101087.28
2022-08-17T07:13:11.375Z,101084.03
2022-08-17T07:15:42.825Z,101079.59
2022-08-17T07:18:12.218Z,101077.09
2022-08-17T07:20:43.902Z,101070.72
2022-08-17T07:23:17.415Z,101085.03
2022-08-17T07:25:45.062Z,101087.41
2022-08-17T07:28:13.123Z,101085.50
2022-08-17T07:30:47.419Z,101077.41
2022-08-17T07:33:20.340Z,101082.56
2022-08-17T07:35:49.999Z,101083.94
2022-08-17T07:38:25.682Z,101091.41
2022-08-17T07:41:02.687Z,101096.56
2022-08-17T07:43:32.431Z,101096.69
2022-08-17T07:46:30.621Z,101101.59
2022-08-17T07:49:17.603Z,101102.50
2022-08-17T07:51:55.413Z,101101.69
2022-08-17T07:54:28.178Z,101106.84
2022-08-17T07:56:56.667Z,101104.53
2022-08-17T07:59:27.177Z,101100.00
2022-08-17T08:02:05.236Z,101106.66
2022-08-17T08:04:58.979Z,101105.63
2022-08-17T08:07:26.515Z,101110.59
2022-08-17T08:10:01.926Z,101106.47
2022-08-17T08:12:34.368Z,101110.88
2022-08-17T08:15:03.094Z,101107.41
2022-08-17T08:17:32.082Z,101113.75
2022-08-17T08:20:01.768Z,101116.00
2022-08-17T08:22:56.223Z,101118.66
2022-08-17T08:25:28.811Z,101108.22
2022-08-17T08:28:05.295Z,101101.13
2022-08-17T08:30:35.409Z,101105.69
2022-08-17T08:33:13.038Z,101097.75
2022-08-17T08:35:45.459Z,101094.69
2022-08-17T08:38:16.839Z,101099.66
2022-08-17T08:40:49.500Z,101102.53
2022-08-17T08:43:22.694Z,101099.34
2022-08-17T08:45:56.656Z,101103.50
2022-08-17T08:48:53.432Z,101109.44
2022-08-17T08:51:32.538Z,101107.97
2022-08-17T08:54:05.188Z,101114.59
2022-08-17T08:56:49.711Z,101113.53
2022-08-17T08:59:34.039Z,101117.06
2022-08-17T09:02:16.889Z,101109.16
2022-08-17T09:05:13.463Z,101113.91
2022-08-17T09:07:45.406Z,101119.50
2022-08-17T09:10:18.674Z,101118.94
2022-08-17T09:12:49.655Z,101122.84
2022-08-17T09:15:19.115Z,101123.44
2022-08-17T09:18:03.538Z,101119.41
2022-08-17T09:20:49.534Z,101124.44
2022-08-17T09:23:26.447Z,101124.06
2022-08-17T09:25:58.605Z,101119.88
2022-08-17T09:28:29.880Z,101112.28
2022-08-17T09:31:01.477Z,101121.72
2022-08-17T09:33:29.319Z,101123.19
2022-08-17T09:35:58.167Z,101118.25
2022-08-17T09:38:32.543Z,101118.63
2022-08-17T09:41:02.779Z,101128.75
2022-08-17T09:43:35.046Z,101124.97
2022-08-17T09:46:05.038Z,101121.31
2022-08-17T09:48:36.863Z,101119.56
2022-08-17T09:51:07.736Z,101120.66
2022-08-17T09:53:38.601Z,101122.66
2022-08-17T09:56:10.102Z,101122.66
2022-08-17T09:58:47.691Z,101124.16
2022-08-17T10:01:22.132Z,101130.38
2022-08-17T10:04:11.114Z,101125.84
2022-08-17T10:06:48.918Z,101131.63
2022-08-17T10:09:22.607Z,101127.13
2022-08-17T10:12:11.169Z,101130.66
2022-08-17T10:14:44.042Z,101122.63
2022-08-17T10:17:19.285Z,101115.38
2022-08-17T10:19:51.458Z,101124.50
2022-08-17T10:22:41.867Z,101116.25
2022-08-17T10:25:48.617Z,101110.88
2022-08-17T10:28:28.774Z,101118.75
2022-08-17T10:31:23.295Z,101117.34
2022-08-17T10:33:55.520Z,101109.28
2022-08-17T10:36:27.713Z,101114.66
2022-08-17T10:39:03.185Z,101111.97
2022-08-17T10:41:40.399Z,101105.22
2022-08-17T10:44:38.331Z,101107.69
2022-08-17T10:47:07.438Z,101109.97
2022-08-17T10:49:35.858Z,101101.13
2022-08-17T10:52:08.157Z,101105.63
2022-08-17T10:54:46.570Z,101104.22
2022-08-17T10:57:32.851Z,101109.38
2022-08-17T11:00:02.294Z,101108.16
2022-08-17T11:02:31.629Z,101110.03
2022-08-17T11:05:09.808Z,101109.81
2022-08-17T11:07:52.425Z,101115.00
2022-08-17T11:10:26.394Z,101113.56
2022-08-17T11:13:01.130Z,101119.38
2022-08-17T11:15:38.729Z,101128.25
2022-08-17T11:18:15.053Z,101123.53
2022-08-17T11:21:09.879Z,101130.53
2022-08-17T11:23:46.598Z,101126.59
2022-08-17T11:26:26.015Z,101129.69
2022-08-17T11:29:00.090Z,101129.94
2022-08-17T11:31:37.770Z,101122.09
2022-08-17T11:34:07.701Z,101128.91
2022-08-17T11:37:05.295Z,101127.25
2022-08-17T11:39:42.859Z,101124.56
2022-08-17T11:42:20.109Z,101122.47
2022-08-17T11:44:52.434Z,101126.44
2022-08-17T11:48:09.040Z,101116.91
2022-08-17T11:51:02.613Z,101117.34
2022-08-17T11:53:48.766Z,101111.28
2022-08-17T11:56:31.722Z,101113.97
2022-08-17T11:59:02.269Z,101113.34
2022-08-17T12:01:48.550Z,101119.31
2022-08-17T12:04:26.016Z,101121.16
2022-08-17T12:06:56.928Z,101120.13
2022-08-17T12:09:26.516Z,101121.56
2022-08-17T12:12:12.126Z,101119.28
2022-08-17T12:15:08.822Z,101112.28
2022-08-17T12:17:41.419Z,101123.66
2022-08-17T12:20:15.196Z,101124.09
2022-08-17T12:22:47.509Z,101113.13
2022-08-17T12:25:19.139Z,101117.25
2022-08-17T12:28:06.047Z,101121.59
2022-08-17T12:30:36.189Z,101109.84
2022-08-17T12:33:13.354Z,101118.94
2022-08-17T12:35:59.714Z,101116.09
2022-08-17T12:38:32.666Z,101111.94
2022-08-17T12:41:22.418Z,101111.53
2022-08-17T12:43:56.422Z,101102.84
2022-08-17T12:46:24.114Z,101110.28
2022-08-17T12:48:59.506Z,101101.81
2022-08-17T12:51:30.188Z,101096.22
2022-08-17T12:53:57.962Z,101096.44
2022-08-17T12:56:25.605Z,101091.28
2022-08-17T12:58:56.444Z,101096.44
2022-08-17T13:01:25.120Z,101100.38
2022-08-17T13:03:54.760Z,101100.78
2022-08-17T13:06:27.776Z,101087.31
2022-08-17T13:08:56.837Z,101089.16
2022-08-17T13:11:25.808Z,101079.66
2022-08-17T13:13:55.027Z,101078.22
2022-08-17T13:16:24.589Z,101084.84
2022-08-17T13:18:53.759Z,101089.19
2022-08-17T13:21:27.075Z,101088.78
2022-08-17T13:23:57.698Z,101085.28
2022-08-17T13:26:29.400Z,101085.06
2022-08-17T13:28:57.174Z,101087.97
2022-08-17T13:31:33.393Z,101085.06
2022-08-17T13:34:18.687Z,101091.69
2022-08-17T13:36:46.673Z,101089.00
2022-08-17T13:39:21.646Z,101094.38
2022-08-17T13:41:50.210Z,101094.56
2022-08-17T13:44:37.708Z,101093.31
2022-08-17T13:47:06.834Z,101098.50
2022-08-17T13:49:48.408Z,101109.88
2022-08-17T13:52:34.071Z,101103.88
2022-08-17T13:55:05.009Z,101108.84
2022-08-17T13:57:32.786Z,101103.06
2022-08-17T14:00:08.238Z,101107.16
2022-08-17T14:02:35.938Z,101104.50
2022-08-17T14:05:06.406Z,101111.13
2022-08-17T14:07:36.001Z,101104.03
2022-08-17T14:10:08.811Z,101100.34
2022-08-17T14:12:38.621Z,101103.63
2022-08-17T14:15:06.707Z,101098.63
2022-08-17T14:17:38.595Z,101099.25
2022-08-17T14:20:09.474Z,101098.66
2022-08-17T14:22:38.297Z,101102.78
2022-08-17T14:25:08.536Z,101101.16
2022-08-17T14:27:41.820Z,101086.06
2022-08-17T14:30:21.255Z,101087.91
2022-08-17T14:32:52.462Z,101087.91
2022-08-17T14:35:21.932Z,101087.91
2022-08-17T14:37:49.793Z,101090.56
2022-08-17T14:40:20.835Z,101086.22
2022-08-17T14:42:48.781Z,101088.50
2022-08-17T14:45:27.401Z,101084.75
2022-08-17T14:48:00.305Z,101093.38
2022-08-17T14:50:27.913Z,101090.28
2022-08-17T14:52:56.295Z,101085.50
2022-08-17T14:55:27.302Z,101099.34
2022-08-17T14:57:54.955Z,101092.69
2022-08-17T15:00:22.640Z,101099.75
2022-08-17T15:02:56.317Z,101100.53
2022-08-17T15:05:25.043Z,101097.47
2022-08-17T15:07:53.708Z,101098.50
2022-08-17T15:10:21.657Z,101099.94
2022-08-17T15:12:50.734Z,101098.09
2022-08-17T15:15:18.688Z,101101.63
2022-08-17T15:17:46.362Z,101104.72
2022-08-17T15:20:15.475Z,101110.47
2022-08-17T15:22:43.996Z,101142.41
2022-08-17T15:25:12.585Z,101154.84
2022-08-17T15:27:40.463Z,101162.66
2022-08-17T15:30:10.806Z,101243.94
2022-08-17T15:32:39.559Z,101196.16
2022-08-17T15:35:08.816Z,101191.03
2022-08-17T15:37:36.492Z,101178.47
2022-08-17T15:40:05.262Z,101182.19
2022-08-17T15:42:32.975Z,101183.59
2022-08-17T15:45:06.038Z,101191.00
2022-08-17T15:47:35.109Z,101185.38
2022-08-17T15:50:05.521Z,101172.72
2022-08-17T15:52:37.909Z,101166.41
2022-08-17T15:55:06.247Z,101159.69
2022-08-17T15:57:34.746Z,101163.56
2022-08-17T16:00:03.382Z,101172.00
2022-08-17T16:03:33.712Z,101159.41
2022-08-17T16:05:24.192Z,101168.22
2022-08-17T16:07:53.479Z,101168.81
2022-08-17T16:10:21.598Z,101165.16
2022-08-17T16:13:02.363Z,101171.81
2022-08-17T16:15:31.012Z,101174.47
2022-08-17T16:17:58.682Z,101174.13
2022-08-17T16:20:27.803Z,101163.78
2022-08-17T16:22:55.695Z,101170.81
2022-08-17T16:25:53.236Z,101174.13
2022-08-17T16:28:12.553Z,101184.63
2022-08-17T16:30:41.273Z,101190.28
2022-08-17T16:33:11.348Z,101191.75
2022-08-17T16:35:41.945Z,101187.13
2022-08-17T16:38:12.532Z,101199.16
2022-08-17T16:40:42.638Z,101190.84
2022-08-17T16:43:12.082Z,101193.03
2022-08-17T16:45:41.012Z,101200.38
2022-08-17T16:48:09.293Z,101201.06
2022-08-17T16:50:37.490Z,101210.28
2022-08-17T16:53:10.436Z,101208.97
2022-08-17T16:55:38.580Z,101198.81
2022-08-17T16:58:06.849Z,101210.38
2022-08-17T17:00:34.755Z,101212.03
2022-08-17T17:03:18.908Z,101208.69
2022-08-17T17:05:57.873Z,101211.88
2022-08-17T17:08:28.431Z,101218.06
2022-08-17T17:11:00.688Z,101217.56
2022-08-17T17:13:33.328Z,101219.59
2022-08-17T17:16:07.015Z,101216.09
2022-08-17T17:18:40.316Z,101217.75
2022-08-17T17:21:11.698Z,101217.91
2022-08-17T17:23:44.092Z,101231.44
2022-08-17T17:26:19.654Z,101231.94
2022-08-17T17:28:54.857Z,101236.47
2022-08-17T17:31:26.255Z,101234.78
2022-08-17T17:33:57.826Z,101240.13
2022-08-17T17:36:35.714Z,101246.31
2022-08-17T17:39:06.558Z,101252.84
2022-08-17T17:41:36.066Z,101245.16
2022-08-17T17:44:07.507Z,101251.66
2022-08-17T17:46:38.065Z,101258.19
2022-08-17T17:49:06.052Z,101255.84
2022-08-17T17:52:09.605Z,101258.06
2022-08-17T17:54:36.398Z,101258.75
2022-08-17T17:57:08.570Z,101258.91
2022-08-17T17:59:44.134Z,101262.09
2022-08-17T18:02:41.178Z,101273.75
2022-08-17T18:05:13.829Z,101271.25
2022-08-17T18:07:43.939Z,101278.56
2022-08-17T18:10:29.424Z,101288.88
2022-08-17T18:13:09.681Z,101282.06
2022-08-17T18:15:41.478Z,101285.25
2022-08-17T18:18:31.867Z,101284.25
2022-08-17T18:21:04.291Z,101283.41
2022-08-17T18:23:33.086Z,101288.09
2022-08-17T18:26:02.461Z,101288.44
2022-08-17T18:28:31.830Z,101296.59
2022-08-17T18:31:06.901Z,101291.75
2022-08-17T18:33:35.362Z,101293.06
2022-08-17T18:36:03.206Z,101300.59
2022-08-17T18:38:33.702Z,101303.75
2022-08-17T18:41:17.364Z,101304.56
2022-08-17T18:43:53.559Z,101304.09
2022-08-17T18:46:28.887Z,101306.22
2022-08-17T18:48:58.886Z,101310.88
2022-08-17T18:51:44.900Z,101312.06
2022-08-17T18:54:17.956Z,101315.91
2022-08-17T18:56:51.823Z,101319.69
2022-08-17T18:59:27.878Z,101322.53
2022-08-17T19:02:05.096Z,101322.88
2022-08-17T19:04:40.301Z,101332.84
2022-08-17T19:07:24.504Z,101329.34
2022-08-17T19:09:53.926Z,101335.69
2022-08-17T19:12:27.637Z,101329.66
2022-08-17T19:14:56.524Z,101329.97
2022-08-17T19:17:27.062Z,101329.31
2022-08-17T19:19:57.709Z,101333.97
2022-08-17T19:22:30.693Z,101336.09
2022-08-17T19:25:08.518Z,101338.13
2022-08-17T19:27:41.868Z,101343.94
2022-08-17T19:30:15.419Z,101340.41
2022-08-17T19:32:43.194Z,101338.09
2022-08-17T19:35:17.139Z,101349.06
2022-08-17T19:37:49.439Z,101350.38
2022-08-17T19:40:48.823Z,101355.19
2022-08-17T19:43:16.407Z,101362.00
2022-08-17T19:45:51.560Z,101371.16
2022-08-17T19:48:25.853Z,101371.63
2022-08-17T19:50:57.050Z,101372.75
2022-08-17T19:53:54.250Z,101368.44
2022-08-17T19:56:23.248Z,101373.22
2022-08-17T19:58:58.144Z,101371.03
2022-08-17T20:01:34.387Z,101379.34
2022-08-17T20:04:08.145Z,101379.47
2022-08-17T20:06:38.279Z,101385.09
2022-08-17T20:09:14.983Z,101379.41
2022-08-17T20:11:46.119Z,101380.41
2022-08-17T20:14:16.215Z,101377.06
2022-08-17T20:16:44.208Z,101383.66
2022-08-17T20:19:17.793Z,101384.63
2022-08-17T20:21:49.933Z,101379.97
2022-08-17T20:24:21.239Z,101386.06
2022-08-17T20:26:57.221Z,101389.34
2022-08-17T20:29:39.814Z,101383.66
2022-08-17T20:32:28.996Z,101382.31
2022-08-17T20:35:10.797Z,101392.94
2022-08-17T20:37:43.147Z,101396.88
2022-08-17T20:40:21.841Z,101400.84
2022-08-17T20:42:49.776Z,101394.97
2022-08-17T20:45:36.440Z,101391.28
2022-08-17T20:48:36.437Z,101394.09
2022-08-17T20:51:12.792Z,101396.09
2022-08-17T20:54:13.742Z,101401.56
2022-08-17T20:56:49.053Z,101410.13
2022-08-17T20:59:31.697Z,101409.44
2022-08-17T21:02:18.947Z,101403.56
2022-08-17T21:05:00.784Z,101407.00
2022-08-17T21:07:30.157Z,101406.63
2022-08-17T21:10:15.239Z,101414.59
2022-08-17T21:12:44.146Z,101418.22
2022-08-17T21:15:23.029Z,101419.50
2022-08-17T21:17:58.281Z,101427.75
2022-08-17T21:20:35.221Z,101431.69
2022-08-17T21:23:17.922Z,101430.16
2022-08-17T21:26:03.502Z,101431.59
2022-08-17T21:28:35.504Z,101429.09
2022-08-17T21:31:09.119Z,101438.56
2022-08-17T21:33:37.674Z,101440.00
2022-08-17T21:36:26.930Z,101436.00
2022-08-17T21:39:02.296Z,101435.28
2022-08-17T21:41:31.818Z,101438.09
2022-08-17T21:44:05.147Z,101435.22
2022-08-17T21:46:36.978Z,101441.63
2022-08-17T21:49:13.468Z,101446.72
2022-08-17T21:51:45.362Z,101447.97
2022-08-17T21:54:22.093Z,101455.13
2022-08-17T21:56:50.131Z,101455.41
2022-08-17T21:59:24.450Z,101465.19
2022-08-17T22:01:53.850Z,101464.47
2022-08-17T22:04:25.602Z,101457.50
2022-08-17T22:06:57.218Z,101459.59
2022-08-17T22:09:26.793Z,101457.66
2022-08-17T22:11:57.526Z,101454.00
2022-08-17T22:14:26.462Z,101461.31
2022-08-17T22:17:18.965Z,101466.06
2022-08-17T22:19:48.977Z,101471.66
2022-08-17T22:22:32.345Z,101474.16
2022-08-17T22:25:01.628Z,101476.28
2022-08-17T22:27:45.445Z,101477.94
2022-08-17T22:30:26.237Z,101471.28
2022-08-17T22:32:54.039Z,101474.34
2022-08-17T22:35:42.821Z,101473.38
2022-08-17T22:38:28.686Z,101472.56
2022-08-17T22:40:58.710Z,101478.69
2022-08-17T22:43:28.603Z,101484.28
2022-08-17T22:45:58.444Z,101486.53
2022-08-17T22:48:27.676Z,101485.69
2022-08-17T22:51:04.324Z,101489.59
2022-08-17T22:54:04.046Z,101490.69
2022-08-17T22:56:49.490Z,101500.47
2022-08-17T22:59:33.730Z,101494.91
2022-08-17T23:02:19.593Z,101489.75
2022-08-17T23:04:48.794Z,101491.00
2022-08-17T23:07:17.428Z,101496.44
2022-08-17T23:09:46.460Z,101492.97
2022-08-17T23:12:16.639Z,101496.16
2022-08-17T23:14:48.014Z,101497.44
2022-08-17T23:17:16.408Z,101491.56
2022-08-17T23:19:45.040Z,101499.38
2022-08-17T23:22:12.809Z,101501.06
2022-08-17T23:24:43.377Z,101504.41
2022-08-17T23:27:12.479Z,101502.75
2022-08-17T23:29:42.057Z,101508.59
2022-08-17T23:32:11.174Z,101508.88
2022-08-17T23:34:39.882Z,101515.16
2022-08-17T23:37:08.069Z,101506.53
2022-08-17T23:39:35.804Z,101514.75
2022-08-17T23:42:07.930Z,101512.38
2022-08-17T23:44:37.848Z,101521.28
2022-08-17T23:47:07.848Z,101518.25
2022-08-17T23:49:36.145Z,101522.81
2022-08-17T23:52:06.251Z,101518.94
2022-08-17T23:54:35.671Z,101524.66
2022-08-17T23:57:04.634Z,101524.06
2022-08-17T23:59:33.862Z,101524.06
